createdAt,value
2023-05-21T00:01:09.167Z,96280.31
2023-05-21T00:03:54.603Z,96273.59
2023-05-21T00:06:39.921Z,96277.25
2023-05-21T00:09:25.208Z,96272.16
2023-05-21T00:12:10.657Z,96271.75
2023-05-21T00:14:56.038Z,96267.09
2023-05-21T00:17:41.874Z,96274.25
2023-05-21T00:20:29.293Z,96269.56
2023-05-21T00:23:18.589Z,96272.22
2023-05-21T00:26:04.206Z,96269.19
2023-05-21T00:28:50.179Z,96267.97
2023-05-21T00:31:35.830Z,96272.09
2023-05-21T00:34:21.035Z,96270.03
2023-05-21T00:37:06.398Z,96267.59
2023-05-21T00:39:51.633Z,96270.75
2023-05-21T00:42:41.277Z,96275.84
2023-05-21T00:45:26.289Z,96275.84
2023-05-21T00:48:12.944Z,96271.53
2023-05-21T00:50:58.577Z,96268.88
2023-05-21T00:53:45.184Z,96266.44
2023-05-21T00:56:31.127Z,96269.91
2023-05-21T00:59:16.862Z,96267.47
2023-05-21T01:02:04.316Z,96270.34
2023-05-21T01:04:50.086Z,96265.59
2023-05-21T01:07:37.220Z,96265.19
2023-05-21T01:10:23.330Z,96264.41
2023-05-21T01:13:08.677Z,96267.28
2023-05-21T01:15:54.677Z,96267.28
2023-05-21T01:18:40.143Z,96263.22
2023-05-21T01:21:26.022Z,96260.75
2023-05-21T01:24:11.893Z,96253.00
2023-05-21T01:26:58.728Z,96250.16
2023-05-21T01:29:44.130Z,96253.41
2023-05-21T01:32:32.454Z,96248.53
2023-05-21T01:35:22.485Z,96253.44
2023-05-21T01:38:27.537Z,96242.44
2023-05-21T01:41:15.259Z,96248.75
2023-05-21T01:44:02.410Z,96251.63
2023-05-21T01:46:47.675Z,96250.63
2023-05-21T01:49:33.497Z,96244.06
2023-05-21T01:52:18.928Z,96238.38
2023-05-21T01:55:04.544Z,96234.31
2023-05-21T01:57:51.367Z,96235.31
2023-05-21T02:00:37.550Z,96236.34
2023-05-21T02:03:27.308Z,96237.19
2023-05-21T02:06:12.690Z,96232.25
2023-05-21T02:08:57.968Z,96228.19
2023-05-21T02:11:43.226Z,96227.78
2023-05-21T02:14:29.876Z,96223.69
2023-05-21T02:17:15.208Z,96228.22
2023-05-21T02:20:18.927Z,96231.25
2023-05-21T02:23:04.129Z,96225.94
2023-05-21T02:25:49.253Z,96225.94
2023-05-21T02:28:36.176Z,96229.84
2023-05-21T02:31:21.746Z,96218.81
2023-05-21T02:34:08.140Z,96216.59
2023-05-21T02:36:54.700Z,96224.97
2023-05-21T02:39:40.247Z,96216.59
2023-05-21T02:42:25.986Z,96218.00
2023-05-21T02:45:12.915Z,96215.78
2023-05-21T02:47:58.198Z,96222.50
2023-05-21T02:50:43.382Z,96231.91
2023-05-21T02:53:28.600Z,96217.19
2023-05-21T02:56:13.976Z,96217.41
2023-05-21T02:58:59.258Z,96222.09
2023-05-21T03:01:45.263Z,96223.13
2023-05-21T03:04:30.467Z,96222.28
2023-05-21T03:07:19.123Z,96228.63
2023-05-21T03:10:05.262Z,96226.56
2023-05-21T03:12:50.311Z,96229.41
2023-05-21T03:15:35.922Z,96222.28
2023-05-21T03:18:21.442Z,96218.81
2023-05-21T03:21:06.934Z,96218.19
2023-05-21T03:23:53.129Z,96213.31
2023-05-21T03:26:38.545Z,96212.28
2023-05-21T03:29:23.790Z,96214.75
2023-05-21T03:32:09.154Z,96210.03
2023-05-21T03:34:54.196Z,96207.41
2023-05-21T03:37:39.485Z,96209.84
2023-05-21T03:40:25.096Z,96208.84
2023-05-21T03:43:10.524Z,96211.06
2023-05-21T03:45:56.324Z,96222.28
2023-05-21T03:48:41.978Z,96216.59
2023-05-21T03:51:27.595Z,96214.53
2023-05-21T03:54:12.825Z,96216.16
2023-05-21T03:56:58.062Z,96225.78
2023-05-21T03:59:43.500Z,96229.63
2023-05-21T04:02:28.895Z,96229.44
2023-05-21T04:05:13.917Z,96219.22
2023-05-21T04:08:00.270Z,96216.78
2023-05-21T04:10:45.536Z,96213.53
2023-05-21T04:13:30.956Z,96203.34
2023-05-21T04:16:19.262Z,96213.09
2023-05-21T04:19:05.748Z,96218.81
2023-05-21T04:21:51.064Z,96219.84
2023-05-21T04:24:40.405Z,96222.47
2023-05-21T04:27:25.644Z,96216.53
2023-05-21T04:30:11.227Z,96217.56
2023-05-21T04:32:58.069Z,96219.59
2023-05-21T04:35:44.637Z,96218.97
2023-05-21T04:38:30.267Z,96219.78
2023-05-21T04:41:15.701Z,96220.00
2023-05-21T04:44:01.161Z,96216.13
2023-05-21T04:46:46.685Z,96219.19
2023-05-21T04:49:35.029Z,96215.94
2023-05-21T04:52:20.444Z,96219.41
2023-05-21T04:55:09.721Z,96221.22
2023-05-21T04:57:55.242Z,96215.72
2023-05-21T05:00:42.239Z,96213.06
2023-05-21T05:03:27.519Z,96213.47
2023-05-21T05:06:12.723Z,96219.16
2023-05-21T05:08:58.007Z,96210.16
2023-05-21T05:11:43.172Z,96208.28
2023-05-21T05:14:28.534Z,96207.25
2023-05-21T05:17:16.849Z,96200.69
2023-05-21T05:20:01.938Z,96201.25
2023-05-21T05:22:47.447Z,96201.44
2023-05-21T05:25:32.852Z,96201.06
2023-05-21T05:28:17.975Z,96197.56
2023-05-21T05:31:03.588Z,96187.28
2023-05-21T05:33:49.267Z,96180.72
2023-05-21T05:36:34.805Z,96174.13
2023-05-21T05:39:20.109Z,96176.91
2023-05-21T05:42:05.786Z,96175.00
2023-05-21T05:44:50.767Z,96172.91
2023-05-21T05:47:36.122Z,96174.25
2023-05-21T05:50:21.549Z,96171.69
2023-05-21T05:53:07.346Z,96172.25
2023-05-21T05:55:52.916Z,96167.28
2023-05-21T05:58:38.246Z,96172.69
2023-05-21T06:01:24.833Z,96171.16
2023-05-21T06:04:10.391Z,96164.69
2023-05-21T06:06:59.769Z,96163.28
2023-05-21T06:09:44.885Z,96168.22
2023-05-21T06:12:30.221Z,96161.94
2023-05-21T06:15:16.621Z,96168.97
2023-05-21T06:18:01.996Z,96160.81
2023-05-21T06:20:47.100Z,96157.38
2023-05-21T06:23:32.761Z,96149.66
2023-05-21T06:26:19.526Z,96152.00
2023-05-21T06:29:04.665Z,96143.69
2023-05-21T06:31:50.165Z,96148.00
2023-05-21T06:34:35.526Z,96143.19
2023-05-21T06:37:26.440Z,96134.63
2023-05-21T06:40:12.468Z,96138.94
2023-05-21T06:42:59.834Z,96139.53
2023-05-21T06:45:45.156Z,96125.34
2023-05-21T06:48:30.601Z,96128.34
2023-05-21T06:51:15.950Z,96129.06
2023-05-21T06:54:01.169Z,96115.56
2023-05-21T06:56:46.648Z,96113.25
2023-05-21T06:59:31.927Z,96115.44
2023-05-21T07:02:17.603Z,96110.38
2023-05-21T07:05:05.967Z,96101.03
2023-05-21T07:07:51.116Z,96106.56
2023-05-21T07:10:36.565Z,96103.81
2023-05-21T07:13:22.153Z,96097.53
2023-05-21T07:16:07.736Z,96100.47
2023-05-21T07:18:52.908Z,96095.97
2023-05-21T07:21:38.112Z,96102.91
2023-05-21T07:24:23.704Z,96099.56
2023-05-21T07:27:18.137Z,96103.06
2023-05-21T07:30:11.080Z,96098.56
2023-05-21T07:32:56.439Z,96092.22
2023-05-21T07:35:41.605Z,96091.13
2023-05-21T07:38:26.942Z,96089.66
2023-05-21T07:41:13.706Z,96091.91
2023-05-21T07:44:01.234Z,96080.69
2023-05-21T07:46:46.761Z,96090.97
2023-05-21T07:49:31.962Z,96079.44
2023-05-21T07:52:17.420Z,96086.25
2023-05-21T07:55:02.908Z,96085.00
2023-05-21T07:57:47.989Z,96085.66
2023-05-21T08:00:44.062Z,96078.47
2023-05-21T08:03:31.187Z,96077.94
2023-05-21T08:06:16.502Z,96075.84
2023-05-21T08:09:06.131Z,96079.88
2023-05-21T08:11:51.805Z,96079.13
2023-05-21T08:14:37.133Z,96078.91
2023-05-21T08:17:22.434Z,96068.41
2023-05-21T08:20:08.285Z,96073.00
2023-05-21T08:22:53.711Z,96077.09
2023-05-21T08:25:39.218Z,96069.31
2023-05-21T08:28:24.574Z,96078.47
2023-05-21T08:31:09.816Z,96073.34
2023-05-21T08:33:56.611Z,96065.81
2023-05-21T08:36:43.393Z,96066.91
2023-05-21T08:39:28.906Z,96060.44
2023-05-21T08:42:37.438Z,96058.34
2023-05-21T08:45:23.802Z,96061.59
2023-05-21T08:48:11.720Z,96068.84
2023-05-21T08:50:56.927Z,96062.66
2023-05-21T08:53:44.844Z,96069.38
2023-05-21T08:56:31.812Z,96060.50
2023-05-21T08:59:18.360Z,96061.31
2023-05-21T09:02:05.048Z,96057.28
2023-05-21T09:04:50.968Z,96055.38
2023-05-21T09:07:44.449Z,96055.38
2023-05-21T09:10:35.865Z,96051.91
2023-05-21T09:13:21.103Z,96047.03
2023-05-21T09:16:07.244Z,96045.16
2023-05-21T09:18:52.745Z,96044.84
2023-05-21T09:21:39.544Z,96043.28
2023-05-21T09:24:25.071Z,96047.56
2023-05-21T09:27:10.530Z,96051.34
2023-05-21T09:29:55.905Z,96052.13
2023-05-21T09:32:41.470Z,96055.91
2023-05-21T09:35:27.386Z,96050.50
2023-05-21T09:38:13.076Z,96053.97
2023-05-21T09:40:58.814Z,96058.59
2023-05-21T09:43:44.996Z,96049.41
2023-05-21T09:46:48.455Z,96043.75
2023-05-21T09:49:33.549Z,96049.69
2023-05-21T09:52:28.443Z,96045.34
2023-05-21T09:55:14.736Z,96048.00
2023-05-21T09:58:00.451Z,96047.19
2023-05-21T10:00:45.962Z,96045.88
2023-05-21T10:03:33.647Z,96038.59
2023-05-21T10:06:19.638Z,96038.63
2023-05-21T10:09:10.589Z,96040.78
2023-05-21T10:11:57.440Z,96034.31
2023-05-21T10:14:49.878Z,96034.47
2023-05-21T10:17:36.055Z,96031.66
2023-05-21T10:20:22.713Z,96026.75
2023-05-21T10:23:09.209Z,96027.81
2023-05-21T10:25:56.268Z,96029.13
2023-05-21T10:28:42.192Z,96024.56
2023-05-21T10:31:28.581Z,96022.41
2023-05-21T10:34:14.838Z,96025.66
2023-05-21T10:37:02.477Z,96019.28
2023-05-21T10:39:49.099Z,96010.69
2023-05-21T10:42:34.185Z,96009.88
2023-05-21T10:45:49.939Z,96010.88
2023-05-21T10:49:02.956Z,96008.09
2023-05-21T10:52:08.238Z,96007.53
2023-05-21T10:55:11.955Z,96006.69
2023-05-21T10:57:57.169Z,96010.50
2023-05-21T11:00:43.817Z,96007.22
2023-05-21T11:03:30.799Z,96008.31
2023-05-21T11:06:25.256Z,96010.78
2023-05-21T11:09:15.172Z,96010.66
2023-05-21T11:12:01.136Z,96010.09
2023-05-21T11:15:06.595Z,96009.00
2023-05-21T11:17:57.092Z,96000.84
2023-05-21T11:20:50.441Z,96000.97
2023-05-21T11:23:51.635Z,95994.84
2023-05-21T11:26:50.168Z,96008.47
2023-05-21T11:29:44.687Z,95997.75
2023-05-21T11:32:30.006Z,95996.72
2023-05-21T11:35:15.190Z,95991.66
2023-05-21T11:38:00.376Z,95980.53
2023-05-21T11:40:55.549Z,95982.94
2023-05-21T11:43:41.178Z,95989.72
2023-05-21T11:46:28.403Z,95996.59
2023-05-21T11:49:13.894Z,95986.38
2023-05-21T11:52:04.015Z,95981.69
2023-05-21T11:54:55.118Z,95979.75
2023-05-21T11:57:42.984Z,95985.94
2023-05-21T12:00:28.780Z,95985.50
2023-05-21T12:03:14.759Z,95972.97
2023-05-21T12:06:05.753Z,95978.31
2023-05-21T12:08:58.343Z,95978.78
2023-05-21T12:11:44.148Z,95987.47
2023-05-21T12:14:29.840Z,95980.34
2023-05-21T12:17:19.817Z,95974.41
2023-05-21T12:20:08.251Z,95975.28
2023-05-21T12:22:54.208Z,95974.94
2023-05-21T12:25:39.465Z,95974.34
2023-05-21T12:28:24.907Z,95976.66
2023-05-21T12:31:15.444Z,95967.00
2023-05-21T12:34:02.274Z,95966.94
2023-05-21T12:36:51.780Z,95971.72
2023-05-21T12:39:43.181Z,95983.09
2023-05-21T12:42:30.817Z,95973.31
2023-05-21T12:45:18.881Z,95969.63
2023-05-21T12:48:04.702Z,95961.97
2023-05-21T12:50:52.181Z,95965.75
2023-05-21T12:53:38.554Z,95956.34
2023-05-21T12:56:23.842Z,95953.63
2023-05-21T12:59:14.639Z,95959.06
2023-05-21T13:02:00.584Z,95966.78
2023-05-21T13:04:46.560Z,95965.03
2023-05-21T13:07:34.503Z,95966.31
2023-05-21T13:10:19.850Z,95967.06
2023-05-21T13:13:05.013Z,95965.94
2023-05-21T13:15:51.021Z,95966.72
2023-05-21T13:18:36.184Z,95968.19
2023-05-21T13:21:21.638Z,95960.53
2023-05-21T13:24:07.513Z,95964.78
2023-05-21T13:26:52.855Z,95963.53
2023-05-21T13:29:38.204Z,95968.06
2023-05-21T13:32:23.485Z,95962.84
2023-05-21T13:35:10.093Z,95956.47
2023-05-21T13:37:55.582Z,95960.75
2023-05-21T13:40:41.569Z,95961.53
2023-05-21T13:43:27.202Z,95958.69
2023-05-21T13:46:12.582Z,95948.03
2023-05-21T13:48:58.038Z,95947.31
2023-05-21T13:51:43.271Z,95950.13
2023-05-21T13:54:28.747Z,95937.84
2023-05-21T13:57:13.977Z,95945.66
2023-05-21T13:59:59.787Z,95945.13
2023-05-21T14:02:45.332Z,95933.91
2023-05-21T14:05:30.859Z,95935.34
2023-05-21T14:08:19.959Z,95945.19
2023-05-21T14:11:05.445Z,95942.53
2023-05-21T14:13:50.382Z,95933.34
2023-05-21T14:16:35.674Z,95938.75
2023-05-21T14:19:20.931Z,95935.03
2023-05-21T14:22:06.100Z,95943.78
2023-05-21T14:24:51.339Z,95934.66
2023-05-21T14:27:37.982Z,95941.13
2023-05-21T14:30:23.504Z,95940.81
2023-05-21T14:33:08.764Z,95934.66
2023-05-21T14:35:54.228Z,95939.03
2023-05-21T14:38:39.482Z,95947.72
2023-05-21T14:41:28.129Z,95947.13
2023-05-21T14:44:13.165Z,95940.63
2023-05-21T14:46:58.391Z,95948.81
2023-05-21T14:49:43.523Z,95944.97
2023-05-21T14:52:28.726Z,95949.25
2023-05-21T14:55:16.528Z,95936.88
2023-05-21T14:58:03.249Z,95945.31
2023-05-21T15:00:48.443Z,95948.03
2023-05-21T15:03:33.766Z,95939.38
2023-05-21T15:06:18.973Z,95938.84
2023-05-21T15:09:04.151Z,95943.28
2023-05-21T15:11:52.605Z,95940.78
2023-05-21T15:14:38.124Z,95941.63
2023-05-21T15:17:23.918Z,95937.03
2023-05-21T15:20:09.961Z,95941.75
2023-05-21T15:23:08.509Z,95939.81
2023-05-21T15:26:00.697Z,95935.00
2023-05-21T15:28:45.949Z,95940.03
2023-05-21T15:31:31.735Z,95938.97
2023-05-21T15:34:18.075Z,95941.34
2023-05-21T15:37:03.305Z,95929.78
2023-05-21T15:39:49.146Z,95938.66
2023-05-21T15:42:34.373Z,95932.69
2023-05-21T15:45:19.843Z,95933.25
2023-05-21T15:48:05.533Z,95943.09
2023-05-21T15:50:51.222Z,95935.53
2023-05-21T15:53:36.422Z,95934.56
2023-05-21T15:56:22.137Z,95935.13
2023-05-21T15:59:07.925Z,95934.84
2023-05-21T16:01:53.207Z,95933.97
2023-05-21T16:04:38.617Z,95937.13
2023-05-21T16:07:24.551Z,95935.63
2023-05-21T16:10:10.741Z,95944.28
2023-05-21T16:12:56.400Z,95938.66
2023-05-21T16:15:41.750Z,95938.84
2023-05-21T16:18:27.010Z,95936.66
2023-05-21T16:21:12.228Z,95939.13
2023-05-21T16:23:57.778Z,95947.53
2023-05-21T16:26:43.874Z,95947.63
2023-05-21T16:29:29.549Z,95941.78
2023-05-21T16:32:15.048Z,95944.53
2023-05-21T16:35:00.241Z,95946.72
2023-05-21T16:37:46.278Z,95941.38
2023-05-21T16:40:31.677Z,95941.47
2023-05-21T16:43:17.226Z,95941.72
2023-05-21T16:46:02.462Z,95954.13
2023-05-21T16:48:47.679Z,95942.84
2023-05-21T16:51:33.101Z,95957.22
2023-05-21T16:54:18.645Z,95965.91
2023-05-21T16:57:03.942Z,95958.97
2023-05-21T16:59:49.290Z,95956.81
2023-05-21T17:02:34.533Z,95958.97
2023-05-21T17:05:20.343Z,95963.28
2023-05-21T17:08:05.753Z,95960.06
2023-05-21T17:10:51.229Z,95957.41
2023-05-21T17:13:36.394Z,95959.59
2023-05-21T17:16:21.810Z,95967.66
2023-05-21T17:19:07.117Z,95959.91
2023-05-21T17:21:54.238Z,95970.44
2023-05-21T17:24:39.368Z,95967.78
2023-05-21T17:27:24.830Z,95963.22
2023-05-21T17:30:10.472Z,95972.38
2023-05-21T17:32:56.246Z,95970.50
2023-05-21T17:35:41.600Z,95965.41
2023-05-21T17:38:27.070Z,95965.13
2023-05-21T17:41:14.806Z,95962.16
2023-05-21T17:43:59.822Z,95964.06
2023-05-21T17:46:56.397Z,95970.56
2023-05-21T17:49:41.777Z,95968.94
2023-05-21T17:52:27.359Z,95959.78
2023-05-21T17:55:12.582Z,95976.50
2023-05-21T17:57:58.048Z,95971.38
2023-05-21T18:00:43.526Z,95971.09
2023-05-21T18:03:30.138Z,95971.63
2023-05-21T18:06:15.921Z,95972.44
2023-05-21T18:09:01.563Z,95974.56
2023-05-21T18:11:46.846Z,95966.47
2023-05-21T18:14:32.117Z,95976.09
2023-05-21T18:17:17.085Z,95980.56
2023-05-21T18:20:04.451Z,95984.25
2023-05-21T18:22:50.794Z,95988.78
2023-05-21T18:25:36.227Z,95985.19
2023-05-21T18:28:21.757Z,95981.88
2023-05-21T18:31:07.147Z,95983.88
2023-05-21T18:33:52.337Z,95979.44
2023-05-21T18:36:40.720Z,95990.31
2023-05-21T18:39:27.834Z,95993.69
2023-05-21T18:42:14.535Z,95988.19
2023-05-21T18:45:07.424Z,95997.44
2023-05-21T18:47:52.881Z,95992.78
2023-05-21T18:50:38.985Z,95999.81
2023-05-21T18:53:24.714Z,96006.06
2023-05-21T18:56:10.352Z,96012.63
2023-05-21T18:58:55.713Z,96007.13
2023-05-21T19:01:41.299Z,96004.56
2023-05-21T19:04:27.428Z,96014.81
2023-05-21T19:07:13.039Z,96007.72
2023-05-21T19:10:00.206Z,96012.88
2023-05-21T19:12:45.858Z,96015.34
2023-05-21T19:15:31.118Z,96006.28
2023-05-21T19:18:17.359Z,96017.75
2023-05-21T19:21:02.518Z,96017.59
2023-05-21T19:23:53.135Z,96020.69
2023-05-21T19:26:39.325Z,96020.25
2023-05-21T19:29:24.596Z,96019.03
2023-05-21T19:32:10.187Z,96022.56
2023-05-21T19:34:57.431Z,96016.56
2023-05-21T19:37:42.710Z,96017.63
2023-05-21T19:40:27.981Z,96016.63
2023-05-21T19:43:13.285Z,96023.41
2023-05-21T19:45:58.748Z,96013.78
2023-05-21T19:48:43.950Z,96027.16
2023-05-21T19:51:29.237Z,96020.56
2023-05-21T19:54:14.547Z,96021.16
2023-05-21T19:56:59.722Z,96020.72
2023-05-21T19:59:44.988Z,96027.69
2023-05-21T20:02:30.262Z,96021.88
2023-05-21T20:05:16.231Z,96023.28
2023-05-21T20:08:01.472Z,96030.72
2023-05-21T20:10:48.733Z,96016.06
2023-05-21T20:13:35.828Z,96021.50
2023-05-21T20:16:21.555Z,96013.03
2023-05-21T20:19:07.030Z,96014.88
2023-05-21T20:21:52.791Z,96014.41
2023-05-21T20:24:38.020Z,96021.91
2023-05-21T20:27:23.356Z,96016.94
2023-05-21T20:30:09.007Z,96014.13
2023-05-21T20:32:54.218Z,96015.84
2023-05-21T20:35:39.710Z,96027.44
2023-05-21T20:38:28.056Z,96028.78
2023-05-21T20:41:13.383Z,96022.72
2023-05-21T20:43:58.999Z,96027.47
2023-05-21T20:46:44.317Z,96024.09
2023-05-21T20:49:29.468Z,96027.06
2023-05-21T20:52:14.916Z,96028.78
2023-05-21T20:55:00.089Z,96018.66
2023-05-21T20:57:45.613Z,96024.84
2023-05-21T21:00:31.769Z,96024.94
2023-05-21T21:03:18.153Z,96014.72
2023-05-21T21:06:04.438Z,96022.56
2023-05-21T21:08:50.208Z,96022.88
2023-05-21T21:11:35.715Z,96020.28
2023-05-21T21:14:20.838Z,96017.25
2023-05-21T21:17:06.230Z,96016.53
2023-05-21T21:19:51.385Z,96022.72
2023-05-21T21:22:36.776Z,96016.91
2023-05-21T21:25:22.038Z,96022.69
2023-05-21T21:28:07.263Z,96019.50
2023-05-21T21:30:52.691Z,96013.44
2023-05-21T21:33:38.118Z,96018.81
2023-05-21T21:36:23.476Z,96012.34
2023-05-21T21:39:08.732Z,96022.59
2023-05-21T21:41:54.118Z,96023.81
2023-05-21T21:44:39.653Z,96019.16
2023-05-21T21:47:25.099Z,96017.19
2023-05-21T21:50:10.734Z,96023.34
2023-05-21T21:52:57.308Z,96023.63
2023-05-21T21:55:42.573Z,96024.06
2023-05-21T21:58:28.000Z,96021.25
2023-05-21T22:01:13.251Z,96016.78
2023-05-21T22:03:58.617Z,96015.97
2023-05-21T22:06:45.410Z,96021.72
2023-05-21T22:09:30.888Z,96020.50
2023-05-21T22:12:16.783Z,96010.75
2023-05-21T22:15:05.412Z,96014.28
2023-05-21T22:17:52.021Z,96010.63
2023-05-21T22:20:38.415Z,96006.38
2023-05-21T22:23:23.642Z,96019.06
2023-05-21T22:26:09.658Z,96017.44
2023-05-21T22:28:54.982Z,96017.88
2023-05-21T22:31:39.996Z,96016.03
2023-05-21T22:34:25.703Z,96023.63
2023-05-21T22:37:11.120Z,96016.75
2023-05-21T22:39:57.337Z,96023.91
2023-05-21T22:42:42.644Z,96011.50
2023-05-21T22:45:28.586Z,96020.50
2023-05-21T22:48:14.397Z,96020.09
2023-05-21T22:51:01.880Z,96025.41
2023-05-21T22:53:47.375Z,96022.34
2023-05-21T22:56:32.586Z,96025.03
2023-05-21T22:59:17.799Z,96026.47
2023-05-21T23:02:03.221Z,96022.03
2023-05-21T23:04:49.367Z,96019.78
2023-05-21T23:07:34.562Z,96027.56
2023-05-21T23:10:19.955Z,96019.00
2023-05-21T23:13:05.269Z,96017.78
2023-05-21T23:15:51.468Z,96011.28
2023-05-21T23:18:36.771Z,96012.09
2023-05-21T23:21:22.329Z,96006.00
2023-05-21T23:24:08.633Z,95999.88
2023-05-21T23:26:56.637Z,96000.72
2023-05-21T23:29:42.242Z,95999.50
2023-05-21T23:32:27.746Z,95999.09
2023-05-21T23:35:14.437Z,95999.69
2023-05-21T23:37:59.804Z,95990.53
2023-05-21T23:40:45.156Z,95992.38
2023-05-21T23:43:30.562Z,95992.78
2023-05-21T23:46:16.188Z,95985.47
2023-05-21T23:49:01.650Z,95981.78
2023-05-21T23:51:50.540Z,95973.66
2023-05-21T23:54:35.777Z,95977.91
2023-05-21T23:57:20.984Z,95977.94
